createdAt,value
2023-04-09T00:03:04.737Z,10.36
2023-04-09T00:08:08.077Z,10.39
2023-04-09T00:13:11.311Z,10.31
2023-04-09T00:18:16.692Z,10.42
2023-04-09T00:23:20.677Z,10.39
2023-04-09T00:28:23.887Z,10.41
2023-04-09T00:33:28.475Z,10.37
2023-04-09T00:38:32.039Z,10.38
2023-04-09T00:43:34.948Z,10.35
2023-04-09T00:48:39.572Z,10.29
2023-04-09T00:53:43.929Z,10.24
2023-04-09T00:58:47.146Z,10.28
2023-04-09T01:03:52.282Z,10.28
2023-04-09T01:09:04.061Z,10.25
2023-04-09T01:14:21.198Z,10.21
2023-04-09T01:19:42.944Z,10.20
2023-04-09T01:24:58.285Z,10.13
2023-04-09T01:30:11.990Z,10.19
2023-04-09T01:35:15.756Z,10.25
2023-04-09T01:40:19.216Z,10.24
2023-04-09T01:45:24.265Z,10.24
2023-04-09T01:50:28.195Z,10.22
2023-04-09T01:55:31.204Z,10.15
2023-04-09T02:00:39.397Z,10.16
2023-04-09T02:05:47.877Z,10.10
2023-04-09T02:10:55.705Z,10.21
2023-04-09T02:16:01.492Z,10.25
2023-04-09T02:21:05.881Z,10.20
2023-04-09T02:26:08.838Z,10.21
2023-04-09T02:31:13.168Z,10.14
2023-04-09T02:36:16.219Z,10.14
2023-04-09T02:41:19.184Z,10.09
2023-04-09T02:46:23.521Z,10.15
2023-04-09T02:51:27.402Z,10.13
2023-04-09T02:56:30.415Z,10.15
2023-04-09T03:01:35.232Z,10.08
2023-04-09T03:06:38.311Z,10.06
2023-04-09T03:11:41.308Z,10.09
2023-04-09T03:16:48.839Z,9.99
2023-04-09T03:21:52.034Z,10.09
2023-04-09T03:27:00.129Z,10.09
2023-04-09T03:32:05.574Z,10.03
2023-04-09T03:37:11.006Z,10.09
2023-04-09T03:42:14.502Z,10.05
2023-04-09T03:47:24.397Z,10.05
2023-04-09T03:52:28.717Z,10.05
2023-04-09T03:57:37.893Z,10.03
2023-04-09T04:02:48.880Z,10.05
2023-04-09T04:07:53.801Z,9.96
2023-04-09T04:13:03.536Z,9.96
2023-04-09T04:18:23.471Z,9.96
2023-04-09T04:23:29.471Z,9.89
2023-04-09T04:28:47.829Z,9.98
2023-04-09T04:34:04.091Z,9.95
2023-04-09T04:39:10.743Z,9.93
2023-04-09T04:44:29.189Z,9.94
2023-04-09T04:49:45.557Z,9.91
2023-04-09T04:54:49.729Z,9.79
2023-04-09T05:00:00.156Z,9.89
2023-04-09T05:05:05.477Z,9.86
2023-04-09T05:10:14.574Z,9.87
2023-04-09T05:15:19.478Z,9.58
2023-04-09T05:20:24.937Z,9.88
2023-04-09T05:25:42.144Z,9.92
2023-04-09T05:30:52.619Z,9.82
2023-04-09T05:35:57.490Z,9.86
2023-04-09T05:41:00.798Z,9.93
2023-04-09T05:46:04.102Z,9.99
2023-04-09T05:51:09.612Z,10.00
2023-04-09T05:56:16.616Z,9.94
2023-04-09T06:01:38.587Z,10.07
2023-04-09T06:06:43.072Z,9.98
2023-04-09T06:11:46.168Z,10.00
2023-04-09T06:16:49.706Z,10.03
2023-04-09T06:21:54.217Z,10.02
2023-04-09T06:26:57.246Z,9.97
2023-04-09T06:32:00.657Z,9.93
2023-04-09T06:37:05.114Z,10.07
2023-04-09T06:42:08.421Z,10.17
2023-04-09T06:47:24.903Z,10.24
2023-04-09T06:52:29.343Z,10.20
2023-04-09T06:57:32.306Z,10.29
2023-04-09T07:02:35.701Z,10.35
2023-04-09T07:07:40.339Z,10.40
2023-04-09T07:12:43.471Z,10.49
2023-04-09T07:17:46.553Z,10.61
2023-04-09T07:22:51.384Z,10.73
2023-04-09T07:27:54.362Z,10.85
2023-04-09T07:32:59.190Z,10.97
2023-04-09T07:38:03.664Z,11.12
2023-04-09T07:43:07.595Z,11.29
2023-04-09T07:48:10.947Z,11.53
2023-04-09T07:53:15.645Z,11.78
2023-04-09T07:58:18.666Z,12.01
2023-04-09T08:03:22.845Z,12.47
2023-04-09T08:08:27.697Z,12.83
2023-04-09T08:13:31.158Z,13.23
2023-04-09T08:18:34.253Z,13.49
2023-04-09T08:23:38.877Z,13.91
2023-04-09T08:28:42.042Z,14.12
2023-04-09T08:33:45.075Z,14.07
2023-04-09T08:38:49.907Z,14.18
2023-04-09T08:43:58.298Z,14.49
2023-04-09T08:49:02.060Z,14.54
2023-04-09T08:54:06.568Z,14.88
2023-04-09T08:59:10.888Z,14.76
2023-04-09T09:04:13.964Z,14.09
2023-04-09T09:09:19.079Z,14.30
2023-04-09T09:14:22.147Z,14.26
2023-04-09T09:19:33.549Z,14.39
2023-04-09T09:24:49.224Z,14.53
2023-04-09T09:29:53.268Z,14.81
2023-04-09T09:35:02.577Z,15.04
2023-04-09T09:40:09.055Z,15.33
2023-04-09T09:45:19.377Z,15.51
2023-04-09T09:50:25.673Z,15.67
2023-04-09T09:55:32.642Z,15.92
2023-04-09T10:00:38.461Z,16.19
2023-04-09T10:05:43.578Z,16.18
2023-04-09T10:10:48.655Z,16.63
2023-04-09T10:15:53.344Z,16.79
2023-04-09T10:21:01.270Z,17.05
2023-04-09T10:26:08.668Z,17.38
2023-04-09T10:31:12.168Z,17.54
2023-04-09T10:36:15.768Z,17.69
2023-04-09T10:41:26.390Z,17.77
2023-04-09T10:46:36.476Z,17.90
2023-04-09T10:51:40.438Z,18.03
2023-04-09T10:57:13.748Z,18.18
2023-04-09T11:02:50.174Z,18.43
2023-04-09T11:07:59.326Z,18.73
2023-04-09T11:13:07.346Z,18.83
2023-04-09T11:18:12.104Z,18.78
2023-04-09T11:23:19.150Z,18.84
2023-04-09T11:28:24.734Z,19.28
2023-04-09T11:33:33.302Z,19.30
2023-04-09T11:38:39.382Z,19.34
2023-04-09T11:43:44.186Z,19.28
2023-04-09T11:48:48.774Z,19.15
2023-04-09T11:53:52.314Z,19.04
2023-04-09T11:58:56.795Z,19.10
2023-04-09T12:04:00.978Z,18.82
2023-04-09T12:09:04.637Z,18.82
2023-04-09T12:14:15.271Z,19.08
2023-04-09T12:19:19.345Z,19.38
2023-04-09T12:24:25.967Z,19.78
2023-04-09T12:29:30.664Z,19.79
2023-04-09T12:34:33.717Z,19.63
2023-04-09T12:39:36.892Z,19.57
2023-04-09T12:44:41.720Z,19.57
2023-04-09T12:49:46.807Z,19.37
2023-04-09T12:54:52.269Z,19.04
2023-04-09T12:59:58.997Z,19.28
2023-04-09T13:05:02.255Z,19.47
2023-04-09T13:10:06.178Z,19.47
2023-04-09T13:15:11.943Z,19.47
2023-04-09T13:20:18.150Z,19.61
2023-04-09T13:25:21.381Z,19.50
2023-04-09T13:30:25.818Z,19.27
2023-04-09T13:35:28.935Z,19.37
2023-04-09T13:40:32.102Z,19.50
2023-04-09T13:45:37.544Z,19.31
2023-04-09T13:50:40.910Z,19.09
2023-04-09T13:55:45.598Z,18.88
2023-04-09T14:00:51.681Z,18.77
2023-04-09T14:05:54.690Z,18.97
2023-04-09T14:10:57.962Z,19.21
2023-04-09T14:16:02.641Z,19.27
2023-04-09T14:21:08.657Z,19.47
2023-04-09T14:26:13.131Z,20.02
2023-04-09T14:31:22.896Z,20.29
2023-04-09T14:36:27.370Z,20.06
2023-04-09T14:41:30.522Z,19.98
2023-04-09T14:46:35.637Z,19.89
2023-04-09T14:51:39.001Z,19.67
2023-04-09T14:56:42.363Z,19.61
2023-04-09T15:01:47.631Z,19.62
2023-04-09T15:06:52.250Z,19.58
2023-04-09T15:11:59.810Z,19.72
2023-04-09T15:17:04.875Z,19.73
2023-04-09T15:22:08.038Z,19.43
2023-04-09T15:27:12.109Z,19.23
2023-04-09T15:32:16.747Z,19.51
2023-04-09T15:37:19.936Z,20.01
2023-04-09T15:42:24.931Z,20.08
2023-04-09T15:47:31.911Z,19.81
2023-04-09T15:52:36.450Z,19.57
2023-04-09T15:57:52.749Z,19.56
2023-04-09T16:03:02.291Z,19.47
2023-04-09T16:08:06.342Z,19.16
2023-04-09T16:13:09.567Z,18.87
2023-04-09T16:18:14.044Z,18.92
2023-04-09T16:23:20.188Z,18.95
2023-04-09T16:28:23.234Z,18.85
2023-04-09T16:33:27.621Z,18.58
2023-04-09T16:38:31.355Z,18.46
2023-04-09T16:43:37.008Z,18.39
2023-04-09T16:48:41.985Z,18.32
2023-04-09T16:53:45.104Z,18.18
2023-04-09T16:58:49.967Z,18.07
2023-04-09T17:03:54.609Z,17.95
2023-04-09T17:08:57.928Z,17.84
2023-04-09T17:14:01.244Z,17.75
2023-04-09T17:19:05.893Z,17.64
2023-04-09T17:24:08.987Z,17.50
2023-04-09T17:29:12.383Z,17.33
2023-04-09T17:34:20.924Z,17.21
2023-04-09T17:39:29.236Z,17.04
2023-04-09T17:44:35.432Z,16.89
2023-04-09T17:49:40.372Z,16.67
2023-04-09T17:54:45.393Z,16.39
2023-04-09T17:59:49.065Z,16.24
2023-04-09T18:04:53.944Z,16.01
2023-04-09T18:09:57.207Z,15.76
2023-04-09T18:15:00.220Z,15.55
2023-04-09T18:20:04.887Z,15.32
2023-04-09T18:25:08.752Z,15.04
2023-04-09T18:30:12.363Z,14.80
2023-04-09T18:35:17.442Z,14.66
2023-04-09T18:40:20.732Z,14.47
2023-04-09T18:45:24.080Z,14.30
2023-04-09T18:50:28.712Z,14.14
2023-04-09T18:55:31.896Z,13.90
2023-04-09T19:00:35.126Z,13.64
2023-04-09T19:05:39.765Z,13.55
2023-04-09T19:10:42.782Z,13.39
2023-04-09T19:15:46.065Z,13.24
2023-04-09T19:20:51.031Z,13.07
2023-04-09T19:25:55.398Z,12.96
2023-04-09T19:31:02.710Z,12.84
2023-04-09T19:36:08.733Z,12.71
2023-04-09T19:41:11.844Z,12.56
2023-04-09T19:46:14.890Z,12.52
2023-04-09T19:51:20.186Z,12.42
2023-04-09T19:56:23.342Z,12.37
2023-04-09T20:01:26.737Z,12.24
2023-04-09T20:06:31.801Z,12.11
2023-04-09T20:11:35.539Z,12.06
2023-04-09T20:16:40.883Z,11.97
2023-04-09T20:21:45.286Z,11.85
2023-04-09T20:26:48.815Z,11.71
2023-04-09T20:31:52.004Z,11.69
2023-04-09T20:36:56.835Z,11.72
2023-04-09T20:42:00.380Z,11.62
2023-04-09T20:47:03.516Z,11.52
2023-04-09T20:52:09.546Z,11.46
2023-04-09T20:57:14.060Z,11.35
2023-04-09T21:02:18.054Z,11.12
2023-04-09T21:07:22.939Z,11.09
2023-04-09T21:12:28.028Z,10.99
2023-04-09T21:17:32.945Z,10.85
2023-04-09T21:22:37.465Z,10.88
2023-04-09T21:27:40.988Z,10.83
2023-04-09T21:32:44.011Z,10.71
2023-04-09T21:37:48.713Z,10.65
2023-04-09T21:42:52.489Z,10.59
2023-04-09T21:47:55.821Z,10.48
2023-04-09T21:53:00.714Z,10.50
2023-04-09T21:58:04.021Z,10.50
2023-04-09T22:03:07.336Z,10.46
2023-04-09T22:08:13.250Z,10.38
2023-04-09T22:13:16.595Z,10.37
2023-04-09T22:18:19.676Z,10.19
2023-04-09T22:23:24.148Z,10.30
2023-04-09T22:28:27.793Z,10.25
2023-04-09T22:33:30.872Z,10.22
2023-04-09T22:38:36.132Z,10.11
2023-04-09T22:43:39.093Z,10.11
2023-04-09T22:48:44.887Z,10.13
2023-04-09T22:53:52.014Z,10.10
2023-04-09T22:58:55.217Z,10.08
2023-04-09T23:03:58.569Z,10.08
2023-04-09T23:09:03.238Z,9.97
2023-04-09T23:14:06.539Z,9.99
2023-04-09T23:19:09.631Z,9.89
2023-04-09T23:24:14.050Z,9.78
2023-04-09T23:29:17.123Z,9.82
2023-04-09T23:34:20.399Z,9.79
2023-04-09T23:39:25.146Z,9.77
2023-04-09T23:44:28.562Z,9.64
2023-04-09T23:49:31.744Z,9.73
2023-04-09T23:54:36.290Z,9.70
2023-04-09T23:59:39.315Z,9.65
